createdAt,value
2018-04-29T00:02:04.872Z,14.50
2018-04-29T00:04:33.217Z,14.50
2018-04-29T00:07:01.535Z,14.50
2018-04-29T00:09:29.841Z,14.50
2018-04-29T00:11:58.921Z,14.50
2018-04-29T00:14:27.991Z,14.50
2018-04-29T00:16:56.370Z,14.50
2018-04-29T00:19:24.690Z,14.50
2018-04-29T00:21:53.003Z,14.50
2018-04-29T00:24:21.246Z,14.50
2018-04-29T00:26:50.302Z,14.50
2018-04-29T00:29:19.402Z,14.50
2018-04-29T00:31:47.695Z,14.50
2018-04-29T00:34:15.935Z,14.50
2018-04-29T00:36:44.222Z,14.60
2018-04-29T00:39:12.473Z,14.50
2018-04-29T00:41:40.768Z,14.50
2018-04-29T00:44:09.063Z,14.60
2018-04-29T00:46:37.300Z,14.60
2018-04-29T00:49:05.551Z,14.60
2018-04-29T00:51:46.599Z,14.60
2018-04-29T00:54:14.847Z,14.60
2018-04-29T00:56:43.131Z,14.60
2018-04-29T00:59:11.415Z,14.70
2018-04-29T01:01:39.651Z,14.70
2018-04-29T01:04:07.945Z,14.70
2018-04-29T01:06:36.187Z,14.70
2018-04-29T01:09:06.016Z,14.70
2018-04-29T01:11:34.267Z,14.70
2018-04-29T01:14:03.288Z,14.70
2018-04-29T01:16:31.531Z,14.70
2018-04-29T01:18:59.779Z,14.80
2018-04-29T01:21:28.032Z,14.80
2018-04-29T01:23:56.278Z,14.80
2018-04-29T01:26:25.292Z,14.80
2018-04-29T01:28:53.537Z,14.80
2018-04-29T01:31:22.599Z,14.90
2018-04-29T01:33:50.888Z,14.90
2018-04-29T01:36:19.131Z,14.90
2018-04-29T01:38:47.420Z,14.90
2018-04-29T01:41:15.724Z,14.90
2018-04-29T01:43:44.002Z,14.90
2018-04-29T01:46:12.261Z,14.90
2018-04-29T01:48:40.547Z,14.90
2018-04-29T01:51:08.830Z,14.90
2018-04-29T01:53:37.132Z,14.90
2018-04-29T01:56:06.132Z,14.80
2018-04-29T01:58:35.192Z,14.80
2018-04-29T02:01:03.469Z,14.80
2018-04-29T02:03:31.760Z,14.80
2018-04-29T02:06:00.035Z,14.80
2018-04-29T02:08:28.286Z,14.90
2018-04-29T02:10:57.265Z,14.90
2018-04-29T02:13:25.565Z,14.90
2018-04-29T02:15:53.805Z,14.90
2018-04-29T02:18:22.060Z,14.90
2018-04-29T02:20:51.118Z,14.90
2018-04-29T02:23:19.417Z,14.80
2018-04-29T02:25:48.418Z,14.90
2018-04-29T02:28:17.484Z,14.90
2018-04-29T02:30:45.815Z,14.90
2018-04-29T02:33:14.097Z,14.90
2018-04-29T02:35:42.347Z,14.90
2018-04-29T02:38:11.393Z,14.90
2018-04-29T02:40:39.640Z,14.80
2018-04-29T02:43:07.884Z,14.90
2018-04-29T02:45:36.175Z,14.90
2018-04-29T02:48:05.178Z,14.90
2018-04-29T02:50:34.221Z,14.90
2018-04-29T02:53:02.518Z,14.90
2018-04-29T02:55:30.763Z,14.90
2018-04-29T02:57:59.020Z,14.80
2018-04-29T03:00:27.320Z,14.80
2018-04-29T03:02:55.610Z,14.70
2018-04-29T03:05:23.852Z,14.60
2018-04-29T03:07:52.151Z,14.60
2018-04-29T03:10:20.395Z,14.60
2018-04-29T03:12:48.678Z,14.60
2018-04-29T03:15:16.966Z,14.60
2018-04-29T03:17:45.212Z,14.60
2018-04-29T03:20:14.266Z,14.50
2018-04-29T03:22:42.572Z,14.60
2018-04-29T03:25:10.803Z,14.50
2018-04-29T03:27:39.114Z,14.50
2018-04-29T03:30:07.351Z,14.50
2018-04-29T03:32:35.611Z,14.40
2018-04-29T03:35:03.911Z,14.30
2018-04-29T03:37:32.164Z,14.30
2018-04-29T03:40:00.413Z,14.20
2018-04-29T03:42:29.437Z,14.10
2018-04-29T03:44:57.738Z,14.10
2018-04-29T03:47:25.984Z,14.10
2018-04-29T03:49:54.274Z,14.10
2018-04-29T03:52:22.515Z,14.00
2018-04-29T03:54:51.537Z,14.00
2018-04-29T03:57:31.705Z,13.90
2018-04-29T04:00:11.999Z,13.90
2018-04-29T04:02:52.228Z,13.90
2018-04-29T04:05:20.517Z,13.90
2018-04-29T04:07:48.794Z,13.90
2018-04-29T04:10:17.040Z,13.90
2018-04-29T04:12:45.297Z,13.90
2018-04-29T04:15:14.325Z,13.90
2018-04-29T04:17:42.568Z,13.90
2018-04-29T04:20:11.630Z,14.00
2018-04-29T04:22:39.909Z,14.00
2018-04-29T04:25:08.190Z,14.00
2018-04-29T04:27:36.440Z,14.00
2018-04-29T04:30:04.704Z,14.00
2018-04-29T04:32:32.980Z,14.00
2018-04-29T04:35:01.276Z,14.00
2018-04-29T04:37:29.558Z,14.00
2018-04-29T04:39:58.562Z,13.90
2018-04-29T04:42:26.862Z,13.90
2018-04-29T04:44:55.139Z,13.90
2018-04-29T04:47:23.405Z,13.90
2018-04-29T04:49:51.647Z,13.90
2018-04-29T04:52:19.910Z,14.00
2018-04-29T04:54:48.194Z,14.00
2018-04-29T04:57:16.445Z,14.00
2018-04-29T04:59:44.694Z,14.00
2018-04-29T05:02:12.986Z,13.90
2018-04-29T05:04:42.035Z,13.90
2018-04-29T05:07:10.408Z,13.90
2018-04-29T05:09:38.702Z,13.90
2018-04-29T05:12:06.949Z,13.90
2018-04-29T05:14:35.200Z,13.90
2018-04-29T05:17:03.460Z,13.90
2018-04-29T05:19:32.468Z,14.00
2018-04-29T05:22:01.487Z,14.10
2018-04-29T05:24:29.770Z,14.10
2018-04-29T05:26:58.024Z,14.20
2018-04-29T05:29:26.284Z,14.30
2018-04-29T05:31:55.343Z,14.40
2018-04-29T05:34:23.605Z,14.30
2018-04-29T05:36:51.888Z,14.40
2018-04-29T05:39:20.180Z,14.40
2018-04-29T05:41:48.463Z,14.50
2018-04-29T05:44:16.751Z,14.50
2018-04-29T05:46:44.990Z,14.70
2018-04-29T05:49:13.293Z,14.80
2018-04-29T05:51:41.524Z,14.90
2018-04-29T05:54:09.828Z,15.00
2018-04-29T05:56:38.059Z,15.10
2018-04-29T05:59:06.326Z,15.10
2018-04-29T06:01:35.336Z,15.30
2018-04-29T06:04:03.581Z,15.30
2018-04-29T06:06:32.626Z,15.50
2018-04-29T06:09:00.852Z,15.50
2018-04-29T06:11:29.870Z,15.60
2018-04-29T06:13:58.139Z,15.60
2018-04-29T06:16:26.409Z,15.70
2018-04-29T06:18:55.420Z,16.00
2018-04-29T06:21:23.716Z,16.00
2018-04-29T06:23:51.959Z,16.00
2018-04-29T06:26:20.979Z,16.20
2018-04-29T06:28:49.229Z,16.20
2018-04-29T06:31:18.284Z,16.40
2018-04-29T06:33:46.527Z,16.40
2018-04-29T06:36:14.789Z,16.40
2018-04-29T06:38:43.065Z,16.50
2018-04-29T06:41:11.291Z,16.60
2018-04-29T06:43:39.595Z,16.70
2018-04-29T06:46:09.375Z,16.80
2018-04-29T06:48:37.631Z,16.80
2018-04-29T06:51:05.880Z,16.90
2018-04-29T06:53:35.029Z,17.10
2018-04-29T06:56:03.256Z,17.10
2018-04-29T06:58:32.320Z,17.30
2018-04-29T07:01:00.595Z,17.20
2018-04-29T07:03:28.857Z,17.40
2018-04-29T07:05:57.147Z,17.50
2018-04-29T07:08:25.439Z,17.50
2018-04-29T07:10:54.495Z,17.60
2018-04-29T07:13:22.725Z,17.60
2018-04-29T07:15:51.818Z,17.80
2018-04-29T07:18:20.123Z,17.80
2018-04-29T07:20:48.401Z,17.90
2018-04-29T07:23:16.646Z,18.00
2018-04-29T07:25:45.711Z,18.10
2018-04-29T07:28:14.016Z,18.10
2018-04-29T07:30:42.261Z,18.20
2018-04-29T07:33:10.561Z,18.30
2018-04-29T07:35:38.808Z,18.40
2018-04-29T07:38:07.053Z,18.50
2018-04-29T07:40:35.311Z,18.70
2018-04-29T07:43:04.368Z,18.90
2018-04-29T07:45:32.678Z,18.90
2018-04-29T07:48:01.740Z,19.20
2018-04-29T07:50:30.018Z,19.20
2018-04-29T07:52:58.272Z,19.40
2018-04-29T07:55:26.579Z,19.50
2018-04-29T07:57:54.824Z,19.70
2018-04-29T08:00:23.074Z,19.80
2018-04-29T08:02:51.379Z,20.00
2018-04-29T08:05:19.632Z,20.10
2018-04-29T08:07:47.896Z,20.20
2018-04-29T08:10:16.918Z,20.40
2018-04-29T08:12:45.189Z,20.40
2018-04-29T08:15:13.439Z,20.40
2018-04-29T08:17:42.457Z,20.60
2018-04-29T08:20:11.339Z,20.60
2018-04-29T08:22:39.624Z,20.70
2018-04-29T08:25:07.846Z,20.70
2018-04-29T08:27:36.088Z,20.80
2018-04-29T08:30:04.487Z,20.80
2018-04-29T08:32:32.981Z,20.90
2018-04-29T08:35:01.264Z,21.00
2018-04-29T08:37:29.512Z,21.00
2018-04-29T08:39:57.772Z,21.10
2018-04-29T08:42:26.085Z,21.30
2018-04-29T08:44:54.362Z,21.40
2018-04-29T08:47:22.675Z,21.50
2018-04-29T08:49:51.777Z,21.70
2018-04-29T08:52:20.927Z,21.70
2018-04-29T08:54:49.191Z,21.70
2018-04-29T08:57:17.491Z,21.80
2018-04-29T08:59:45.755Z,21.90
2018-04-29T09:02:14.083Z,22.00
2018-04-29T09:04:43.144Z,22.10
2018-04-29T09:07:11.419Z,22.10
2018-04-29T09:09:39.705Z,22.10
2018-04-29T09:12:07.968Z,22.10
2018-04-29T09:14:36.219Z,22.20
2018-04-29T09:17:04.546Z,22.20
2018-04-29T09:19:32.802Z,22.30
2018-04-29T09:22:01.477Z,22.30
2018-04-29T09:24:29.805Z,22.40
2018-04-29T09:26:58.860Z,22.60
2018-04-29T09:29:27.148Z,22.50
2018-04-29T09:31:55.407Z,22.60
2018-04-29T09:34:23.672Z,22.70
2018-04-29T09:36:51.974Z,22.70
2018-04-29T09:39:20.235Z,22.80
2018-04-29T09:41:48.496Z,22.90
2018-04-29T09:44:16.820Z,22.90
2018-04-29T09:46:45.070Z,22.90
2018-04-29T09:49:13.380Z,23.00
2018-04-29T09:51:41.623Z,23.00
2018-04-29T09:54:09.882Z,23.00
2018-04-29T09:56:38.185Z,23.00
2018-04-29T09:59:06.472Z,23.00
2018-04-29T10:01:35.537Z,23.10
2018-04-29T10:04:03.805Z,23.10
2018-04-29T10:06:32.072Z,23.20
2018-04-29T10:09:00.312Z,23.20
2018-04-29T10:11:29.339Z,23.30
2018-04-29T10:13:58.289Z,23.30
2018-04-29T10:16:26.637Z,23.50
2018-04-29T10:18:54.954Z,23.50
2018-04-29T10:21:23.296Z,23.60
2018-04-29T10:23:51.583Z,23.70
2018-04-29T10:26:19.880Z,23.80
2018-04-29T10:28:48.122Z,23.90
2018-04-29T10:31:16.393Z,24.00
2018-04-29T10:33:44.678Z,24.10
2018-04-29T10:36:12.942Z,24.20
2018-04-29T10:41:08.920Z,24.60
2018-04-29T10:43:37.186Z,24.70
2018-04-29T10:46:06.224Z,25.00
2018-04-29T10:48:34.546Z,24.90
2018-04-29T10:51:03.560Z,25.40
2018-04-29T10:53:32.622Z,25.60
2018-04-29T10:56:00.940Z,25.60
2018-04-29T10:58:29.203Z,25.80
2018-04-29T11:00:58.216Z,26.10
2018-04-29T11:03:26.487Z,26.00
2018-04-29T11:05:54.791Z,26.20
2018-04-29T11:08:23.031Z,26.40
2018-04-29T11:10:51.748Z,26.60
2018-04-29T11:13:19.999Z,26.80
2018-04-29T11:15:48.268Z,27.00
2018-04-29T11:18:17.280Z,27.20
2018-04-29T11:20:45.526Z,27.20
2018-04-29T11:23:14.548Z,27.50
2018-04-29T11:25:42.827Z,27.50
2018-04-29T11:28:11.145Z,27.50
2018-04-29T11:30:39.421Z,27.60
2018-04-29T11:33:07.668Z,27.70
2018-04-29T11:35:35.918Z,27.90
2018-04-29T11:38:04.244Z,28.10
2018-04-29T11:40:32.570Z,28.20
2018-04-29T11:43:00.784Z,28.30
2018-04-29T11:45:29.044Z,28.50
2018-04-29T11:47:57.369Z,28.60
2018-04-29T11:50:25.680Z,28.80
2018-04-29T11:52:54.700Z,29.10
2018-04-29T11:55:23.015Z,29.00
2018-04-29T11:57:51.253Z,29.20
2018-04-29T12:00:19.570Z,29.30
2018-04-29T12:02:47.844Z,29.50
2018-04-29T12:05:16.118Z,29.50
2018-04-29T12:07:44.416Z,29.60
2018-04-29T12:10:12.707Z,29.70
2018-04-29T12:12:41.777Z,29.90
2018-04-29T12:15:10.047Z,29.90
2018-04-29T12:17:38.365Z,30.00
2018-04-29T12:20:07.385Z,30.30
2018-04-29T12:22:35.668Z,30.30
2018-04-29T12:25:03.962Z,30.30
2018-04-29T12:27:32.212Z,30.40
2018-04-29T12:30:00.475Z,30.50
2018-04-29T12:32:28.720Z,30.50
2018-04-29T12:34:57.008Z,30.60
2018-04-29T12:37:25.258Z,30.60
2018-04-29T12:39:53.546Z,30.70
2018-04-29T12:42:22.175Z,30.80
2018-04-29T12:44:50.506Z,30.90
2018-04-29T12:47:18.767Z,30.90
2018-04-29T12:49:47.005Z,31.00
2018-04-29T12:52:15.348Z,31.00
2018-04-29T12:54:43.629Z,31.00
2018-04-29T12:57:11.914Z,31.20
2018-04-29T12:59:40.220Z,31.30
2018-04-29T13:02:08.487Z,31.50
2018-04-29T13:04:37.580Z,31.40
2018-04-29T13:07:06.643Z,31.50
2018-04-29T13:09:34.900Z,31.40
2018-04-29T13:12:03.132Z,31.50
2018-04-29T13:14:31.441Z,31.50
2018-04-29T13:16:59.686Z,31.60
2018-04-29T13:19:27.986Z,31.50
2018-04-29T13:21:56.255Z,31.50
2018-04-29T13:24:24.519Z,31.60
2018-04-29T13:26:53.547Z,31.70
2018-04-29T13:29:21.831Z,31.70
2018-04-29T13:31:50.148Z,31.80
2018-04-29T13:34:18.385Z,31.80
2018-04-29T13:36:46.691Z,31.80
2018-04-29T13:39:14.944Z,31.80
2018-04-29T13:41:43.228Z,31.80
2018-04-29T13:44:11.468Z,31.90
2018-04-29T13:46:39.807Z,31.90
2018-04-29T13:49:08.087Z,31.90
2018-04-29T13:51:36.399Z,32.10
2018-04-29T13:54:04.653Z,32.10
2018-04-29T13:56:33.786Z,32.30
2018-04-29T13:59:02.769Z,32.50
2018-04-29T14:01:31.044Z,32.50
2018-04-29T14:03:59.319Z,32.50
2018-04-29T14:06:27.622Z,32.70
2018-04-29T14:08:55.967Z,32.70
2018-04-29T14:11:25.027Z,32.80
2018-04-29T14:13:53.371Z,32.80
2018-04-29T14:16:22.029Z,32.80
2018-04-29T14:18:51.061Z,33.00
2018-04-29T14:21:19.315Z,33.00
2018-04-29T14:23:47.592Z,33.00
2018-04-29T14:26:15.880Z,33.10
2018-04-29T14:28:44.132Z,33.30
2018-04-29T14:31:12.441Z,33.50
2018-04-29T14:33:40.693Z,33.70
2018-04-29T14:36:08.946Z,34.00
2018-04-29T14:38:38.003Z,34.80
2018-04-29T14:41:07.091Z,35.20
2018-04-29T14:43:35.383Z,35.20
2018-04-29T14:46:03.699Z,35.60
2018-04-29T14:48:32.763Z,36.50
2018-04-29T14:51:01.884Z,36.50
2018-04-29T14:53:30.899Z,36.00
2018-04-29T14:55:59.195Z,35.90
2018-04-29T14:58:28.237Z,34.80
2018-04-29T15:00:56.520Z,34.80
2018-04-29T15:03:24.784Z,34.30
2018-04-29T15:05:53.037Z,34.10
2018-04-29T15:08:21.309Z,34.00
2018-04-29T15:10:49.608Z,34.00
2018-04-29T15:13:18.664Z,34.00
2018-04-29T15:15:46.957Z,34.10
2018-04-29T15:18:27.170Z,34.10
2018-04-29T15:20:55.476Z,34.20
2018-04-29T15:23:23.727Z,34.20
2018-04-29T15:25:52.058Z,34.20
2018-04-29T15:28:20.561Z,34.20
2018-04-29T15:30:48.838Z,34.00
2018-04-29T15:33:17.072Z,33.80
2018-04-29T15:35:45.344Z,33.50
2018-04-29T15:38:13.646Z,33.30
2018-04-29T15:40:41.963Z,33.20
2018-04-29T15:43:10.262Z,33.00
2018-04-29T15:45:39.323Z,32.90
2018-04-29T15:48:07.596Z,32.90
2018-04-29T15:50:35.844Z,32.80
2018-04-29T15:53:04.262Z,32.70
2018-04-29T15:55:32.555Z,32.60
2018-04-29T15:58:00.851Z,32.50
2018-04-29T16:00:29.888Z,32.50
2018-04-29T16:02:58.193Z,32.50
2018-04-29T16:05:26.473Z,32.40
2018-04-29T16:07:54.720Z,32.30
2018-04-29T16:10:23.025Z,32.30
2018-04-29T16:12:51.268Z,32.20
2018-04-29T16:15:19.552Z,32.20
2018-04-29T16:17:47.784Z,32.10
2018-04-29T16:20:16.061Z,32.20
2018-04-29T16:22:44.358Z,32.10
2018-04-29T16:25:12.634Z,32.10
2018-04-29T16:27:40.896Z,32.00
2018-04-29T16:30:09.899Z,31.80
2018-04-29T16:32:38.170Z,31.80
2018-04-29T16:35:07.165Z,31.50
2018-04-29T16:37:35.433Z,31.50
2018-04-29T16:40:03.684Z,31.40
2018-04-29T16:42:32.000Z,31.20
2018-04-29T16:45:00.280Z,31.10
2018-04-29T16:47:28.532Z,30.90
2018-04-29T16:49:57.612Z,30.60
2018-04-29T16:52:26.622Z,30.60
2018-04-29T16:54:54.880Z,30.40
2018-04-29T16:57:23.128Z,30.30
2018-04-29T16:59:51.401Z,30.20
2018-04-29T17:02:19.652Z,30.10
2018-04-29T17:04:47.932Z,30.00
2018-04-29T17:07:16.176Z,29.90
2018-04-29T17:09:44.482Z,29.80
2018-04-29T17:12:12.766Z,29.70
2018-04-29T17:14:41.027Z,29.60
2018-04-29T17:17:09.393Z,29.50
2018-04-29T17:19:37.685Z,29.30
2018-04-29T17:22:05.958Z,29.20
2018-04-29T17:24:35.031Z,28.80
2018-04-29T17:27:03.302Z,28.80
2018-04-29T17:29:31.599Z,28.70
2018-04-29T17:31:59.833Z,28.60
2018-04-29T17:34:28.123Z,28.50
2018-04-29T17:36:56.412Z,28.30
2018-04-29T17:39:24.660Z,28.10
2018-04-29T17:41:52.911Z,28.00
2018-04-29T17:44:21.183Z,27.90
2018-04-29T17:46:49.472Z,27.70
2018-04-29T17:49:17.734Z,27.60
2018-04-29T17:51:46.827Z,27.30
2018-04-29T17:54:15.969Z,27.20
2018-04-29T17:56:44.298Z,27.10
2018-04-29T17:59:13.308Z,27.00
2018-04-29T18:01:41.637Z,27.00
2018-04-29T18:04:09.914Z,26.80
2018-04-29T18:06:38.223Z,26.70
2018-04-29T18:09:07.236Z,26.50
2018-04-29T18:11:35.525Z,26.50
2018-04-29T18:14:03.843Z,26.40
2018-04-29T18:16:32.115Z,26.30
2018-04-29T18:19:01.300Z,26.20
2018-04-29T18:21:29.524Z,26.20
2018-04-29T18:23:57.829Z,26.00
2018-04-29T18:26:26.078Z,25.90
2018-04-29T18:28:55.093Z,25.80
2018-04-29T18:31:23.362Z,25.80
2018-04-29T18:33:52.367Z,25.60
2018-04-29T18:36:20.668Z,25.50
2018-04-29T18:38:48.985Z,25.50
2018-04-29T18:41:17.233Z,25.40
2018-04-29T18:43:45.520Z,25.30
2018-04-29T18:46:13.795Z,25.20
2018-04-29T18:48:42.194Z,25.20
2018-04-29T18:51:10.678Z,25.10
2018-04-29T18:53:38.691Z,24.90
2018-04-29T18:56:06.951Z,24.90
2018-04-29T18:58:35.212Z,24.80
2018-04-29T19:01:04.313Z,24.60
2018-04-29T19:03:33.371Z,24.40
2018-04-29T19:06:01.663Z,24.40
2018-04-29T19:08:29.948Z,24.30
2018-04-29T19:10:58.228Z,24.20
2018-04-29T19:13:27.326Z,24.00
2018-04-29T19:15:56.427Z,23.70
2018-04-29T19:18:24.676Z,23.70
2018-04-29T19:20:52.987Z,23.50
2018-04-29T19:23:22.009Z,23.30
2018-04-29T19:25:50.362Z,23.30
2018-04-29T19:28:19.377Z,23.10
2018-04-29T19:30:47.649Z,23.00
2018-04-29T19:33:15.902Z,23.00
2018-04-29T19:35:44.992Z,22.80
2018-04-29T19:38:15.902Z,22.80
2018-04-29T19:40:44.238Z,22.70
2018-04-29T19:43:12.489Z,22.60
2018-04-29T19:45:41.599Z,22.40
2018-04-29T19:48:10.662Z,22.30
2018-04-29T19:50:38.974Z,22.30
2018-04-29T19:53:08.020Z,22.10
2018-04-29T19:55:36.327Z,22.00
2018-04-29T19:58:04.611Z,21.90
2018-04-29T20:00:32.935Z,21.80
2018-04-29T20:03:01.199Z,21.70
2018-04-29T20:05:30.328Z,21.60
2018-04-29T20:07:58.612Z,21.60
2018-04-29T20:10:26.914Z,21.50
2018-04-29T20:12:55.242Z,21.40
2018-04-29T20:15:23.707Z,21.40
2018-04-29T20:17:52.016Z,21.30
2018-04-29T20:20:20.290Z,21.30
2018-04-29T20:22:48.577Z,21.30
2018-04-29T20:25:16.920Z,21.20
2018-04-29T20:27:45.198Z,21.20
2018-04-29T20:30:13.486Z,21.20
2018-04-29T20:32:48.667Z,21.20
2018-04-29T20:35:17.076Z,21.10
2018-04-29T20:37:46.139Z,21.00
2018-04-29T20:40:14.459Z,21.00
2018-04-29T20:42:42.759Z,21.10
2018-04-29T20:45:11.010Z,21.00
2018-04-29T20:47:39.297Z,21.00
2018-04-29T20:50:07.591Z,21.00
2018-04-29T20:52:35.879Z,21.00
2018-04-29T20:55:04.134Z,21.00
2018-04-29T20:57:32.440Z,21.00
2018-04-29T21:00:00.774Z,21.00
2018-04-29T21:02:29.070Z,21.00
2018-04-29T21:04:57.361Z,21.10
2018-04-29T21:07:25.608Z,21.10
2018-04-29T21:09:54.651Z,21.10
2018-04-29T21:12:22.903Z,21.10
2018-04-29T21:14:51.196Z,21.10
2018-04-29T21:17:19.528Z,21.10
2018-04-29T21:19:47.719Z,21.10
2018-04-29T21:22:16.097Z,21.10
2018-04-29T21:24:44.353Z,21.20
2018-04-29T21:27:12.637Z,21.20
2018-04-29T21:29:41.644Z,21.20
2018-04-29T21:32:09.954Z,21.20
2018-04-29T21:34:38.183Z,21.20
2018-04-29T21:37:07.269Z,21.20
2018-04-29T21:39:35.593Z,21.20
2018-04-29T21:42:03.850Z,21.20
2018-04-29T21:44:32.178Z,21.20
2018-04-29T21:47:00.476Z,21.20
2018-04-29T21:49:28.759Z,21.30
2018-04-29T21:51:57.635Z,21.30
2018-04-29T21:54:25.900Z,21.30
2018-04-29T21:56:54.226Z,21.30
2018-04-29T21:59:22.481Z,21.20
2018-04-29T22:01:52.428Z,21.20
2018-04-29T22:04:20.772Z,21.20
2018-04-29T22:06:49.738Z,21.20
2018-04-29T22:09:17.992Z,21.20
2018-04-29T22:11:46.240Z,21.20
2018-04-29T22:14:14.590Z,21.20
2018-04-29T22:16:42.917Z,21.10
2018-04-29T22:19:11.173Z,21.10
2018-04-29T22:21:39.443Z,21.10
2018-04-29T22:24:08.547Z,21.10
2018-04-29T22:26:37.587Z,21.10
2018-04-29T22:29:05.832Z,21.10
2018-04-29T22:31:34.089Z,21.10
2018-04-29T22:34:03.151Z,21.00
2018-04-29T22:36:31.447Z,21.00
2018-04-29T22:38:59.693Z,21.00
2018-04-29T22:41:27.997Z,21.00
2018-04-29T22:43:56.291Z,21.00
2018-04-29T22:46:25.707Z,20.90
2018-04-29T22:48:54.709Z,20.90
2018-04-29T22:51:23.038Z,20.90
2018-04-29T22:53:51.314Z,20.90
2018-04-29T22:56:19.579Z,20.90
2018-04-29T22:58:47.861Z,20.80
2018-04-29T23:01:16.883Z,20.70
2018-04-29T23:03:45.915Z,20.70
2018-04-29T23:06:14.160Z,20.70
2018-04-29T23:08:43.223Z,20.60
2018-04-29T23:11:11.480Z,20.60
2018-04-29T23:13:39.771Z,20.60
2018-04-29T23:16:08.017Z,20.60
2018-04-29T23:18:36.296Z,20.50
2018-04-29T23:21:04.599Z,20.50
2018-04-29T23:23:32.886Z,20.50
2018-04-29T23:26:01.127Z,20.40
2018-04-29T23:28:29.426Z,20.30
2018-04-29T23:30:57.699Z,20.30
2018-04-29T23:33:25.995Z,20.20
2018-04-29T23:35:54.421Z,20.20
2018-04-29T23:38:23.456Z,20.20
2018-04-29T23:40:52.344Z,20.10
2018-04-29T23:43:20.595Z,20.20
2018-04-29T23:45:48.839Z,20.10
2018-04-29T23:48:17.093Z,20.10
2018-04-29T23:50:45.391Z,20.10
2018-04-29T23:53:13.681Z,20.10
2018-04-29T23:55:42.691Z,20.10
2018-04-29T23:58:10.927Z,20.00
